sensor_id;sensor_type;location;lat;lon;timestamp;P1;durP1;ratioP1;P2;durP2;ratioP2
76612;SDS011;65507;48.454;-2.058;2023-05-07T00:02:21;5.97;;;2.38;;
76612;SDS011;65507;48.454;-2.058;2023-05-07T00:04:47;6.13;;;2.30;;
76612;SDS011;65507;48.454;-2.058;2023-05-07T00:07:13;3.42;;;2.05;;
76612;SDS011;65507;48.454;-2.058;2023-05-07T00:09:39;5.97;;;2.28;;
76612;SDS011;65507;48.454;-2.058;2023-05-07T00:12:05;5.35;;;2.47;;
76612;SDS011;65507;48.454;-2.058;2023-05-07T00:14:31;4.85;;;2.42;;
76612;SDS011;65507;48.454;-2.058;2023-05-07T00:16:57;9.35;;;2.88;;
76612;SDS011;65507;48.454;-2.058;2023-05-07T00:19:22;8.75;;;2.25;;
76612;SDS011;65507;48.454;-2.058;2023-05-07T00:21:48;5.20;;;2.58;;
76612;SDS011;65507;48.454;-2.058;2023-05-07T00:24:14;8.05;;;3.20;;
76612;SDS011;65507;48.454;-2.058;2023-05-07T00:26:40;3.63;;;2.25;;
76612;SDS011;65507;48.454;-2.058;2023-05-07T00:29:05;5.13;;;2.17;;
76612;SDS011;65507;48.454;-2.058;2023-05-07T00:31:31;5.88;;;2.85;;
76612;SDS011;65507;48.454;-2.058;2023-05-07T00:33:57;10.70;;;3.08;;
76612;SDS011;65507;48.454;-2.058;2023-05-07T00:36:22;7.75;;;2.50;;
76612;SDS011;65507;48.454;-2.058;2023-05-07T00:38:48;6.70;;;2.90;;
76612;SDS011;65507;48.454;-2.058;2023-05-07T00:41:13;7.80;;;2.60;;
76612;SDS011;65507;48.454;-2.058;2023-05-07T00:43:40;9.50;;;2.58;;
76612;SDS011;65507;48.454;-2.058;2023-05-07T00:46:05;5.28;;;2.85;;
76612;SDS011;65507;48.454;-2.058;2023-05-07T00:48:31;4.50;;;2.40;;
76612;SDS011;65507;48.454;-2.058;2023-05-07T00:50:57;5.80;;;2.53;;
76612;SDS011;65507;48.454;-2.058;2023-05-07T00:53:23;7.20;;;2.70;;
76612;SDS011;65507;48.454;-2.058;2023-05-07T00:55:48;4.97;;;2.58;;
76612;SDS011;65507;48.454;-2.058;2023-05-07T00:58:14;9.77;;;2.75;;
76612;SDS011;65507;48.454;-2.058;2023-05-07T01:00:40;4.07;;;1.85;;
76612;SDS011;65507;48.454;-2.058;2023-05-07T01:03:06;5.70;;;2.70;;
76612;SDS011;65507;48.454;-2.058;2023-05-07T01:05:32;5.88;;;2.75;;
76612;SDS011;65507;48.454;-2.058;2023-05-07T01:07:58;5.72;;;2.50;;
76612;SDS011;65507;48.454;-2.058;2023-05-07T01:10:24;5.30;;;2.47;;
76612;SDS011;65507;48.454;-2.058;2023-05-07T01:12:50;5.90;;;2.50;;
76612;SDS011;65507;48.454;-2.058;2023-05-07T01:15:17;3.55;;;2.45;;
76612;SDS011;65507;48.454;-2.058;2023-05-07T01:17:43;6.75;;;2.58;;
76612;SDS011;65507;48.454;-2.058;2023-05-07T01:20:09;5.57;;;2.67;;
76612;SDS011;65507;48.454;-2.058;2023-05-07T01:22:36;6.30;;;2.88;;
76612;SDS011;65507;48.454;-2.058;2023-05-07T01:25:06;10.10;;;2.80;;
76612;SDS011;65507;48.454;-2.058;2023-05-07T01:27:33;5.35;;;2.78;;
76612;SDS011;65507;48.454;-2.058;2023-05-07T01:32:28;4.53;;;2.53;;
76612;SDS011;65507;48.454;-2.058;2023-05-07T01:34:58;5.72;;;2.78;;
76612;SDS011;65507;48.454;-2.058;2023-05-07T01:37:26;7.70;;;2.88;;
76612;SDS011;65507;48.454;-2.058;2023-05-07T01:39:52;4.78;;;2.55;;
76612;SDS011;65507;48.454;-2.058;2023-05-07T01:42:19;6.75;;;3.08;;
76612;SDS011;65507;48.454;-2.058;2023-05-07T01:44:44;6.45;;;2.95;;
76612;SDS011;65507;48.454;-2.058;2023-05-07T01:47:11;13.98;;;3.28;;
76612;SDS011;65507;48.454;-2.058;2023-05-07T01:49:38;7.97;;;3.35;;
76612;SDS011;65507;48.454;-2.058;2023-05-07T01:52:09;8.48;;;3.38;;
76612;SDS011;65507;48.454;-2.058;2023-05-07T01:54:36;8.68;;;3.05;;
76612;SDS011;65507;48.454;-2.058;2023-05-07T01:57:02;10.25;;;3.63;;
76612;SDS011;65507;48.454;-2.058;2023-05-07T01:59:28;6.72;;;3.33;;
76612;SDS011;65507;48.454;-2.058;2023-05-07T02:01:53;11.70;;;3.13;;
76612;SDS011;65507;48.454;-2.058;2023-05-07T02:04:19;7.15;;;3.10;;
76612;SDS011;65507;48.454;-2.058;2023-05-07T02:06:45;8.43;;;3.65;;
76612;SDS011;65507;48.454;-2.058;2023-05-07T02:09:11;11.73;;;4.00;;
76612;SDS011;65507;48.454;-2.058;2023-05-07T02:11:37;10.60;;;3.65;;
76612;SDS011;65507;48.454;-2.058;2023-05-07T02:14:02;9.15;;;3.70;;
76612;SDS011;65507;48.454;-2.058;2023-05-07T02:16:28;7.68;;;3.60;;
76612;SDS011;65507;48.454;-2.058;2023-05-07T02:18:53;10.20;;;3.70;;
76612;SDS011;65507;48.454;-2.058;2023-05-07T02:21:19;10.10;;;3.25;;
76612;SDS011;65507;48.454;-2.058;2023-05-07T02:23:45;12.02;;;4.15;;
76612;SDS011;65507;48.454;-2.058;2023-05-07T02:26:11;9.52;;;3.88;;
76612;SDS011;65507;48.454;-2.058;2023-05-07T02:28:36;8.90;;;3.60;;
76612;SDS011;65507;48.454;-2.058;2023-05-07T02:31:05;9.05;;;3.63;;
76612;SDS011;65507;48.454;-2.058;2023-05-07T02:33:31;7.78;;;3.78;;
76612;SDS011;65507;48.454;-2.058;2023-05-07T02:35:56;12.50;;;3.53;;
76612;SDS011;65507;48.454;-2.058;2023-05-07T02:38:29;5.40;;;3.15;;
76612;SDS011;65507;48.454;-2.058;2023-05-07T02:40:55;7.50;;;3.22;;
76612;SDS011;65507;48.454;-2.058;2023-05-07T02:43:20;7.45;;;3.30;;
76612;SDS011;65507;48.454;-2.058;2023-05-07T02:45:46;7.88;;;3.10;;
76612;SDS011;65507;48.454;-2.058;2023-05-07T02:48:12;8.40;;;3.40;;
76612;SDS011;65507;48.454;-2.058;2023-05-07T02:50:37;9.07;;;3.15;;
76612;SDS011;65507;48.454;-2.058;2023-05-07T02:53:03;10.13;;;3.03;;
76612;SDS011;65507;48.454;-2.058;2023-05-07T02:55:29;8.20;;;2.67;;
76612;SDS011;65507;48.454;-2.058;2023-05-07T02:57:55;6.30;;;2.60;;
76612;SDS011;65507;48.454;-2.058;2023-05-07T03:00:21;5.35;;;2.45;;
76612;SDS011;65507;48.454;-2.058;2023-05-07T03:02:47;4.00;;;2.63;;
76612;SDS011;65507;48.454;-2.058;2023-05-07T03:05:12;6.82;;;2.90;;
76612;SDS011;65507;48.454;-2.058;2023-05-07T03:07:39;7.05;;;4.18;;
76612;SDS011;65507;48.454;-2.058;2023-05-07T03:10:06;6.47;;;3.47;;
76612;SDS011;65507;48.454;-2.058;2023-05-07T03:12:31;6.07;;;3.00;;
76612;SDS011;65507;48.454;-2.058;2023-05-07T03:14:57;5.65;;;2.90;;
76612;SDS011;65507;48.454;-2.058;2023-05-07T03:17:23;7.95;;;3.53;;
76612;SDS011;65507;48.454;-2.058;2023-05-07T03:19:48;8.88;;;3.20;;
76612;SDS011;65507;48.454;-2.058;2023-05-07T03:22:14;8.70;;;3.25;;
76612;SDS011;65507;48.454;-2.058;2023-05-07T03:24:40;6.32;;;2.90;;
76612;SDS011;65507;48.454;-2.058;2023-05-07T03:27:05;8.55;;;2.70;;
76612;SDS011;65507;48.454;-2.058;2023-05-07T03:29:31;9.90;;;3.65;;
76612;SDS011;65507;48.454;-2.058;2023-05-07T03:31:57;6.97;;;3.40;;
76612;SDS011;65507;48.454;-2.058;2023-05-07T03:34:22;9.32;;;4.10;;
76612;SDS011;65507;48.454;-2.058;2023-05-07T03:36:48;11.05;;;3.85;;
76612;SDS011;65507;48.454;-2.058;2023-05-07T03:39:14;9.93;;;3.90;;
76612;SDS011;65507;48.454;-2.058;2023-05-07T03:41:40;9.75;;;3.85;;
76612;SDS011;65507;48.454;-2.058;2023-05-07T03:44:06;9.45;;;3.88;;
76612;SDS011;65507;48.454;-2.058;2023-05-07T03:46:32;12.90;;;4.70;;
76612;SDS011;65507;48.454;-2.058;2023-05-07T03:48:58;10.27;;;4.25;;
76612;SDS011;65507;48.454;-2.058;2023-05-07T03:51:24;12.05;;;4.40;;
76612;SDS011;65507;48.454;-2.058;2023-05-07T03:53:50;13.93;;;4.95;;
76612;SDS011;65507;48.454;-2.058;2023-05-07T03:56:18;9.55;;;4.43;;
76612;SDS011;65507;48.454;-2.058;2023-05-07T03:58:44;15.38;;;4.88;;
76612;SDS011;65507;48.454;-2.058;2023-05-07T04:01:10;9.88;;;4.30;;
76612;SDS011;65507;48.454;-2.058;2023-05-07T04:03:37;13.18;;;4.55;;
76612;SDS011;65507;48.454;-2.058;2023-05-07T04:06:02;11.10;;;4.38;;
76612;SDS011;65507;48.454;-2.058;2023-05-07T04:08:28;11.35;;;4.30;;
76612;SDS011;65507;48.454;-2.058;2023-05-07T04:10:54;14.35;;;4.38;;
76612;SDS011;65507;48.454;-2.058;2023-05-07T04:13:23;12.98;;;4.82;;
76612;SDS011;65507;48.454;-2.058;2023-05-07T04:15:50;13.63;;;4.20;;
76612;SDS011;65507;48.454;-2.058;2023-05-07T04:18:20;10.68;;;4.35;;
76612;SDS011;65507;48.454;-2.058;2023-05-07T04:20:46;15.10;;;5.32;;
76612;SDS011;65507;48.454;-2.058;2023-05-07T04:23:13;11.02;;;4.45;;
76612;SDS011;65507;48.454;-2.058;2023-05-07T04:25:38;13.18;;;4.57;;
76612;SDS011;65507;48.454;-2.058;2023-05-07T04:28:04;11.57;;;4.38;;
76612;SDS011;65507;48.454;-2.058;2023-05-07T04:30:29;9.90;;;4.03;;
76612;SDS011;65507;48.454;-2.058;2023-05-07T04:32:55;11.75;;;4.53;;
76612;SDS011;65507;48.454;-2.058;2023-05-07T04:35:21;16.63;;;4.93;;
76612;SDS011;65507;48.454;-2.058;2023-05-07T04:37:47;13.55;;;4.60;;
76612;SDS011;65507;48.454;-2.058;2023-05-07T04:40:13;18.38;;;4.72;;
76612;SDS011;65507;48.454;-2.058;2023-05-07T04:42:39;15.85;;;5.15;;
76612;SDS011;65507;48.454;-2.058;2023-05-07T04:45:04;23.50;;;5.53;;
76612;SDS011;65507;48.454;-2.058;2023-05-07T04:47:30;25.98;;;4.15;;
76612;SDS011;65507;48.454;-2.058;2023-05-07T04:49:57;26.77;;;5.30;;
76612;SDS011;65507;48.454;-2.058;2023-05-07T04:52:23;17.50;;;5.20;;
76612;SDS011;65507;48.454;-2.058;2023-05-07T04:54:48;29.83;;;5.68;;
76612;SDS011;65507;48.454;-2.058;2023-05-07T04:57:14;20.52;;;6.03;;
76612;SDS011;65507;48.454;-2.058;2023-05-07T04:59:41;21.63;;;5.60;;
76612;SDS011;65507;48.454;-2.058;2023-05-07T05:02:07;23.75;;;6.45;;
76612;SDS011;65507;48.454;-2.058;2023-05-07T05:04:33;18.65;;;6.75;;
76612;SDS011;65507;48.454;-2.058;2023-05-07T05:06:58;26.98;;;6.53;;
76612;SDS011;65507;48.454;-2.058;2023-05-07T05:09:24;25.30;;;5.50;;
76612;SDS011;65507;48.454;-2.058;2023-05-07T05:11:50;21.33;;;6.10;;
76612;SDS011;65507;48.454;-2.058;2023-05-07T05:14:15;16.95;;;6.18;;
76612;SDS011;65507;48.454;-2.058;2023-05-07T05:16:44;14.55;;;5.88;;
76612;SDS011;65507;48.454;-2.058;2023-05-07T05:19:10;21.00;;;5.47;;
76612;SDS011;65507;48.454;-2.058;2023-05-07T05:21:35;19.67;;;6.30;;
76612;SDS011;65507;48.454;-2.058;2023-05-07T05:24:01;15.43;;;5.88;;
76612;SDS011;65507;48.454;-2.058;2023-05-07T05:26:27;15.02;;;5.78;;
76612;SDS011;65507;48.454;-2.058;2023-05-07T05:28:52;14.25;;;5.68;;
76612;SDS011;65507;48.454;-2.058;2023-05-07T05:31:18;14.05;;;6.00;;
76612;SDS011;65507;48.454;-2.058;2023-05-07T05:33:44;14.43;;;6.07;;
76612;SDS011;65507;48.454;-2.058;2023-05-07T05:36:10;14.52;;;5.55;;
76612;SDS011;65507;48.454;-2.058;2023-05-07T05:38:36;19.35;;;6.38;;
76612;SDS011;65507;48.454;-2.058;2023-05-07T05:41:02;14.32;;;5.03;;
76612;SDS011;65507;48.454;-2.058;2023-05-07T05:43:28;11.35;;;5.75;;
76612;SDS011;65507;48.454;-2.058;2023-05-07T05:45:55;12.65;;;5.40;;
76612;SDS011;65507;48.454;-2.058;2023-05-07T05:48:21;12.20;;;5.43;;
76612;SDS011;65507;48.454;-2.058;2023-05-07T05:50:47;12.02;;;5.20;;
76612;SDS011;65507;48.454;-2.058;2023-05-07T05:53:13;12.80;;;5.93;;
76612;SDS011;65507;48.454;-2.058;2023-05-07T05:55:39;10.98;;;5.35;;
76612;SDS011;65507;48.454;-2.058;2023-05-07T05:58:05;11.05;;;5.28;;
76612;SDS011;65507;48.454;-2.058;2023-05-07T06:00:31;11.40;;;5.22;;
76612;SDS011;65507;48.454;-2.058;2023-05-07T06:02:57;10.63;;;5.53;;
76612;SDS011;65507;48.454;-2.058;2023-05-07T06:05:22;10.98;;;6.20;;
76612;SDS011;65507;48.454;-2.058;2023-05-07T06:07:48;12.82;;;5.43;;
76612;SDS011;65507;48.454;-2.058;2023-05-07T06:10:14;10.85;;;5.70;;
76612;SDS011;65507;48.454;-2.058;2023-05-07T06:12:39;10.90;;;5.53;;
76612;SDS011;65507;48.454;-2.058;2023-05-07T06:15:05;12.65;;;5.93;;
76612;SDS011;65507;48.454;-2.058;2023-05-07T06:17:31;10.23;;;5.28;;
76612;SDS011;65507;48.454;-2.058;2023-05-07T06:19:57;10.93;;;5.35;;
76612;SDS011;65507;48.454;-2.058;2023-05-07T06:22:22;10.70;;;5.60;;
76612;SDS011;65507;48.454;-2.058;2023-05-07T06:24:48;10.70;;;5.25;;
76612;SDS011;65507;48.454;-2.058;2023-05-07T06:27:14;11.45;;;5.35;;
76612;SDS011;65507;48.454;-2.058;2023-05-07T06:29:39;12.20;;;5.78;;
76612;SDS011;65507;48.454;-2.058;2023-05-07T06:32:11;11.05;;;5.45;;
76612;SDS011;65507;48.454;-2.058;2023-05-07T06:34:38;10.77;;;5.22;;
76612;SDS011;65507;48.454;-2.058;2023-05-07T06:37:04;10.93;;;5.50;;
76612;SDS011;65507;48.454;-2.058;2023-05-07T06:39:30;10.98;;;5.30;;
76612;SDS011;65507;48.454;-2.058;2023-05-07T06:41:56;11.98;;;5.53;;
76612;SDS011;65507;48.454;-2.058;2023-05-07T06:44:22;12.95;;;5.22;;
76612;SDS011;65507;48.454;-2.058;2023-05-07T06:46:48;14.10;;;5.53;;
76612;SDS011;65507;48.454;-2.058;2023-05-07T06:49:14;13.50;;;5.28;;
76612;SDS011;65507;48.454;-2.058;2023-05-07T06:51:40;11.65;;;5.22;;
76612;SDS011;65507;48.454;-2.058;2023-05-07T06:54:06;16.67;;;6.13;;
76612;SDS011;65507;48.454;-2.058;2023-05-07T06:56:32;14.20;;;6.15;;
76612;SDS011;65507;48.454;-2.058;2023-05-07T06:58:59;12.38;;;5.65;;
76612;SDS011;65507;48.454;-2.058;2023-05-07T07:01:25;19.30;;;5.95;;
76612;SDS011;65507;48.454;-2.058;2023-05-07T07:03:51;12.77;;;4.85;;
76612;SDS011;65507;48.454;-2.058;2023-05-07T07:06:16;12.65;;;5.25;;
76612;SDS011;65507;48.454;-2.058;2023-05-07T07:08:42;13.40;;;5.22;;
76612;SDS011;65507;48.454;-2.058;2023-05-07T07:11:10;12.77;;;5.63;;
76612;SDS011;65507;48.454;-2.058;2023-05-07T07:13:36;15.48;;;6.45;;
76612;SDS011;65507;48.454;-2.058;2023-05-07T07:16:02;14.48;;;5.90;;
76612;SDS011;65507;48.454;-2.058;2023-05-07T07:18:28;12.90;;;5.65;;
76612;SDS011;65507;48.454;-2.058;2023-05-07T07:20:54;11.40;;;4.43;;
76612;SDS011;65507;48.454;-2.058;2023-05-07T07:23:19;12.60;;;4.43;;
76612;SDS011;65507;48.454;-2.058;2023-05-07T07:25:45;15.20;;;4.85;;
76612;SDS011;65507;48.454;-2.058;2023-05-07T07:28:11;12.75;;;4.80;;
76612;SDS011;65507;48.454;-2.058;2023-05-07T07:30:37;12.38;;;4.85;;
76612;SDS011;65507;48.454;-2.058;2023-05-07T07:33:03;12.27;;;4.63;;
76612;SDS011;65507;48.454;-2.058;2023-05-07T07:35:30;12.40;;;4.97;;
76612;SDS011;65507;48.454;-2.058;2023-05-07T07:37:58;15.43;;;5.00;;
76612;SDS011;65507;48.454;-2.058;2023-05-07T07:40:24;13.23;;;4.75;;
76612;SDS011;65507;48.454;-2.058;2023-05-07T07:42:51;12.65;;;4.13;;
76612;SDS011;65507;48.454;-2.058;2023-05-07T07:45:17;16.00;;;5.05;;
76612;SDS011;65507;48.454;-2.058;2023-05-07T07:47:43;15.18;;;5.45;;
76612;SDS011;65507;48.454;-2.058;2023-05-07T07:50:09;14.82;;;5.13;;
76612;SDS011;65507;48.454;-2.058;2023-05-07T07:52:34;14.55;;;5.35;;
76612;SDS011;65507;48.454;-2.058;2023-05-07T07:55:00;12.30;;;5.22;;
76612;SDS011;65507;48.454;-2.058;2023-05-07T07:57:26;14.73;;;5.32;;
76612;SDS011;65507;48.454;-2.058;2023-05-07T07:59:52;13.45;;;5.88;;
76612;SDS011;65507;48.454;-2.058;2023-05-07T08:02:18;13.20;;;5.03;;
76612;SDS011;65507;48.454;-2.058;2023-05-07T08:04:43;11.75;;;5.00;;
76612;SDS011;65507;48.454;-2.058;2023-05-07T08:07:10;12.02;;;5.53;;
76612;SDS011;65507;48.454;-2.058;2023-05-07T08:09:37;13.18;;;5.10;;
76612;SDS011;65507;48.454;-2.058;2023-05-07T08:12:04;10.00;;;4.57;;
76612;SDS011;65507;48.454;-2.058;2023-05-07T08:14:31;10.60;;;4.15;;
76612;SDS011;65507;48.454;-2.058;2023-05-07T08:16:56;10.32;;;4.43;;
76612;SDS011;65507;48.454;-2.058;2023-05-07T08:19:22;12.55;;;4.35;;
76612;SDS011;65507;48.454;-2.058;2023-05-07T08:21:48;8.30;;;4.20;;
76612;SDS011;65507;48.454;-2.058;2023-05-07T08:24:14;14.70;;;4.72;;
76612;SDS011;65507;48.454;-2.058;2023-05-07T08:26:40;7.93;;;3.80;;
76612;SDS011;65507;48.454;-2.058;2023-05-07T08:29:06;11.52;;;4.35;;
76612;SDS011;65507;48.454;-2.058;2023-05-07T08:31:32;10.90;;;4.03;;
76612;SDS011;65507;48.454;-2.058;2023-05-07T08:33:58;11.40;;;4.10;;
76612;SDS011;65507;48.454;-2.058;2023-05-07T08:36:24;9.20;;;4.00;;
76612;SDS011;65507;48.454;-2.058;2023-05-07T08:38:53;7.07;;;3.50;;
76612;SDS011;65507;48.454;-2.058;2023-05-07T08:41:20;11.93;;;3.83;;
76612;SDS011;65507;48.454;-2.058;2023-05-07T08:43:48;10.68;;;4.18;;
76612;SDS011;65507;48.454;-2.058;2023-05-07T08:46:19;8.88;;;3.72;;
76612;SDS011;65507;48.454;-2.058;2023-05-07T08:48:49;8.52;;;3.60;;
76612;SDS011;65507;48.454;-2.058;2023-05-07T08:51:16;9.05;;;4.22;;
76612;SDS011;65507;48.454;-2.058;2023-05-07T08:53:43;13.25;;;4.30;;
76612;SDS011;65507;48.454;-2.058;2023-05-07T08:56:09;10.07;;;4.13;;
76612;SDS011;65507;48.454;-2.058;2023-05-07T08:58:36;9.88;;;4.18;;
76612;SDS011;65507;48.454;-2.058;2023-05-07T09:01:03;7.35;;;3.30;;
76612;SDS011;65507;48.454;-2.058;2023-05-07T09:03:36;10.18;;;3.17;;
76612;SDS011;65507;48.454;-2.058;2023-05-07T09:06:02;8.63;;;3.40;;
76612;SDS011;65507;48.454;-2.058;2023-05-07T09:08:28;8.05;;;3.50;;
76612;SDS011;65507;48.454;-2.058;2023-05-07T09:10:54;9.35;;;3.28;;
76612;SDS011;65507;48.454;-2.058;2023-05-07T09:13:20;11.75;;;4.28;;
76612;SDS011;65507;48.454;-2.058;2023-05-07T09:15:46;9.57;;;4.03;;
76612;SDS011;65507;48.454;-2.058;2023-05-07T09:18:12;11.15;;;3.10;;
76612;SDS011;65507;48.454;-2.058;2023-05-07T09:20:38;9.25;;;2.78;;
76612;SDS011;65507;48.454;-2.058;2023-05-07T09:23:05;8.35;;;2.67;;
76612;SDS011;65507;48.454;-2.058;2023-05-07T09:27:59;7.93;;;2.93;;
76612;SDS011;65507;48.454;-2.058;2023-05-07T09:30:31;5.78;;;2.75;;
76612;SDS011;65507;48.454;-2.058;2023-05-07T09:32:58;12.68;;;2.90;;
76612;SDS011;65507;48.454;-2.058;2023-05-07T09:35:25;9.35;;;3.00;;
76612;SDS011;65507;48.454;-2.058;2023-05-07T09:37:55;8.48;;;2.65;;
76612;SDS011;65507;48.454;-2.058;2023-05-07T09:40:22;5.95;;;2.95;;
76612;SDS011;65507;48.454;-2.058;2023-05-07T09:42:54;6.90;;;2.28;;
76612;SDS011;65507;48.454;-2.058;2023-05-07T09:45:24;5.18;;;1.65;;
76612;SDS011;65507;48.454;-2.058;2023-05-07T09:47:53;4.57;;;1.30;;
76612;SDS011;65507;48.454;-2.058;2023-05-07T09:50:36;5.05;;;1.60;;
76612;SDS011;65507;48.454;-2.058;2023-05-07T09:53:05;4.47;;;1.48;;
76612;SDS011;65507;48.454;-2.058;2023-05-07T09:55:31;5.53;;;1.50;;
76612;SDS011;65507;48.454;-2.058;2023-05-07T09:57:57;5.15;;;1.45;;
76612;SDS011;65507;48.454;-2.058;2023-05-07T10:00:24;8.38;;;1.88;;
76612;SDS011;65507;48.454;-2.058;2023-05-07T10:02:52;9.35;;;1.70;;
76612;SDS011;65507;48.454;-2.058;2023-05-07T10:05:18;4.00;;;1.95;;
76612;SDS011;65507;48.454;-2.058;2023-05-07T10:07:47;6.45;;;1.90;;
76612;SDS011;65507;48.454;-2.058;2023-05-07T10:10:14;6.93;;;1.48;;
76612;SDS011;65507;48.454;-2.058;2023-05-07T10:12:41;3.70;;;1.40;;
76612;SDS011;65507;48.454;-2.058;2023-05-07T10:15:07;5.18;;;1.50;;
76612;SDS011;65507;48.454;-2.058;2023-05-07T10:17:35;7.47;;;1.70;;
76612;SDS011;65507;48.454;-2.058;2023-05-07T10:20:02;7.13;;;1.48;;
76612;SDS011;65507;48.454;-2.058;2023-05-07T10:22:30;5.03;;;1.30;;
76612;SDS011;65507;48.454;-2.058;2023-05-07T10:25:02;5.60;;;1.42;;
76612;SDS011;65507;48.454;-2.058;2023-05-07T10:27:31;5.93;;;1.63;;
76612;SDS011;65507;48.454;-2.058;2023-05-07T10:35:04;6.88;;;1.55;;
76612;SDS011;65507;48.454;-2.058;2023-05-07T10:37:35;4.80;;;1.52;;
76612;SDS011;65507;48.454;-2.058;2023-05-07T10:40:01;5.75;;;1.48;;
76612;SDS011;65507;48.454;-2.058;2023-05-07T10:42:27;7.32;;;1.50;;
76612;SDS011;65507;48.454;-2.058;2023-05-07T10:44:53;4.95;;;1.48;;
76612;SDS011;65507;48.454;-2.058;2023-05-07T10:47:19;5.10;;;1.60;;
76612;SDS011;65507;48.454;-2.058;2023-05-07T10:52:11;6.85;;;1.25;;
76612;SDS011;65507;48.454;-2.058;2023-05-07T10:54:48;7.85;;;1.30;;
76612;SDS011;65507;48.454;-2.058;2023-05-07T10:57:43;3.97;;;1.10;;
76612;SDS011;65507;48.454;-2.058;2023-05-07T11:05:28;7.30;;;2.00;;
76612;SDS011;65507;48.454;-2.058;2023-05-07T11:07:55;2.65;;;1.42;;
76612;SDS011;65507;48.454;-2.058;2023-05-07T11:10:22;6.55;;;1.67;;
76612;SDS011;65507;48.454;-2.058;2023-05-07T11:12:49;3.65;;;1.90;;
76612;SDS011;65507;48.454;-2.058;2023-05-07T11:15:33;7.07;;;1.48;;
76612;SDS011;65507;48.454;-2.058;2023-05-07T11:18:00;9.00;;;1.50;;
76612;SDS011;65507;48.454;-2.058;2023-05-07T11:26:05;7.47;;;1.70;;
76612;SDS011;65507;48.454;-2.058;2023-05-07T11:28:41;8.55;;;2.00;;
76612;SDS011;65507;48.454;-2.058;2023-05-07T11:31:08;8.77;;;1.95;;
76612;SDS011;65507;48.454;-2.058;2023-05-07T11:33:35;8.63;;;1.88;;
76612;SDS011;65507;48.454;-2.058;2023-05-07T11:36:04;8.87;;;2.03;;
76612;SDS011;65507;48.454;-2.058;2023-05-07T11:38:36;7.55;;;1.90;;
76612;SDS011;65507;48.454;-2.058;2023-05-07T11:41:02;5.22;;;1.80;;
76612;SDS011;65507;48.454;-2.058;2023-05-07T11:43:30;7.22;;;2.13;;
76612;SDS011;65507;48.454;-2.058;2023-05-07T11:46:08;7.07;;;2.60;;
76612;SDS011;65507;48.454;-2.058;2023-05-07T11:48:35;7.30;;;2.13;;
76612;SDS011;65507;48.454;-2.058;2023-05-07T11:51:02;6.95;;;1.90;;
76612;SDS011;65507;48.454;-2.058;2023-05-07T11:53:37;4.32;;;2.00;;
76612;SDS011;65507;48.454;-2.058;2023-05-07T11:56:07;6.78;;;2.20;;
76612;SDS011;65507;48.454;-2.058;2023-05-07T11:58:34;6.97;;;1.80;;
76612;SDS011;65507;48.454;-2.058;2023-05-07T12:00:59;7.07;;;2.30;;
76612;SDS011;65507;48.454;-2.058;2023-05-07T12:03:25;8.10;;;2.30;;
76612;SDS011;65507;48.454;-2.058;2023-05-07T12:05:51;7.20;;;1.77;;
76612;SDS011;65507;48.454;-2.058;2023-05-07T12:08:17;6.45;;;1.90;;
76612;SDS011;65507;48.454;-2.058;2023-05-07T12:10:44;13.77;;;2.10;;
76612;SDS011;65507;48.454;-2.058;2023-05-07T12:13:19;7.72;;;1.90;;
76612;SDS011;65507;48.454;-2.058;2023-05-07T12:15:50;6.00;;;1.75;;
76612;SDS011;65507;48.454;-2.058;2023-05-07T12:18:23;10.55;;;1.70;;
76612;SDS011;65507;48.454;-2.058;2023-05-07T12:20:49;7.18;;;1.63;;
76612;SDS011;65507;48.454;-2.058;2023-05-07T12:23:16;6.35;;;1.92;;
76612;SDS011;65507;48.454;-2.058;2023-05-07T12:25:42;8.68;;;2.45;;
76612;SDS011;65507;48.454;-2.058;2023-05-07T12:28:18;4.60;;;1.80;;
76612;SDS011;65507;48.454;-2.058;2023-05-07T12:30:45;6.60;;;1.55;;
76612;SDS011;65507;48.454;-2.058;2023-05-07T12:33:19;5.00;;;2.13;;
76612;SDS011;65507;48.454;-2.058;2023-05-07T12:35:48;7.00;;;1.90;;
76612;SDS011;65507;48.454;-2.058;2023-05-07T12:38:15;3.20;;;1.50;;
76612;SDS011;65507;48.454;-2.058;2023-05-07T12:40:43;6.53;;;1.90;;
76612;SDS011;65507;48.454;-2.058;2023-05-07T12:43:19;7.18;;;1.50;;
76612;SDS011;65507;48.454;-2.058;2023-05-07T12:45:49;6.57;;;1.67;;
76612;SDS011;65507;48.454;-2.058;2023-05-07T12:48:15;7.57;;;1.50;;
76612;SDS011;65507;48.454;-2.058;2023-05-07T12:50:41;4.50;;;1.67;;
76612;SDS011;65507;48.454;-2.058;2023-05-07T12:53:08;7.30;;;1.95;;
76612;SDS011;65507;48.454;-2.058;2023-05-07T12:55:46;2.83;;;1.25;;
76612;SDS011;65507;48.454;-2.058;2023-05-07T12:58:48;3.97;;;1.52;;
76612;SDS011;65507;48.454;-2.058;2023-05-07T13:01:05;3.88;;;1.70;;
76612;SDS011;65507;48.454;-2.058;2023-05-07T13:03:33;6.90;;;1.58;;
76612;SDS011;65507;48.454;-2.058;2023-05-07T13:06:01;6.05;;;2.03;;
76612;SDS011;65507;48.454;-2.058;2023-05-07T13:08:33;6.35;;;1.90;;
76612;SDS011;65507;48.454;-2.058;2023-05-07T13:11:03;4.75;;;1.77;;
76612;SDS011;65507;48.454;-2.058;2023-05-07T13:13:33;6.05;;;2.05;;
76612;SDS011;65507;48.454;-2.058;2023-05-07T13:16:00;5.45;;;1.63;;
76612;SDS011;65507;48.454;-2.058;2023-05-07T13:18:27;5.93;;;2.03;;
76612;SDS011;65507;48.454;-2.058;2023-05-07T13:20:54;5.40;;;1.52;;
76612;SDS011;65507;48.454;-2.058;2023-05-07T13:23:20;4.95;;;1.83;;
76612;SDS011;65507;48.454;-2.058;2023-05-07T13:25:46;6.75;;;1.98;;
76612;SDS011;65507;48.454;-2.058;2023-05-07T13:28:12;5.50;;;2.00;;
76612;SDS011;65507;48.454;-2.058;2023-05-07T13:30:38;4.80;;;1.63;;
76612;SDS011;65507;48.454;-2.058;2023-05-07T13:33:06;6.82;;;2.08;;
76612;SDS011;65507;48.454;-2.058;2023-05-07T13:35:33;7.43;;;2.00;;
76612;SDS011;65507;48.454;-2.058;2023-05-07T13:37:59;6.50;;;1.73;;
76612;SDS011;65507;48.454;-2.058;2023-05-07T13:40:25;7.63;;;2.08;;
76612;SDS011;65507;48.454;-2.058;2023-05-07T13:42:51;5.97;;;2.00;;
76612;SDS011;65507;48.454;-2.058;2023-05-07T13:45:17;4.25;;;1.60;;
76612;SDS011;65507;48.454;-2.058;2023-05-07T13:47:44;5.55;;;1.73;;
76612;SDS011;65507;48.454;-2.058;2023-05-07T13:50:10;6.40;;;1.45;;
76612;SDS011;65507;48.454;-2.058;2023-05-07T13:52:38;7.82;;;1.80;;
76612;SDS011;65507;48.454;-2.058;2023-05-07T13:55:08;8.65;;;2.10;;
76612;SDS011;65507;48.454;-2.058;2023-05-07T13:57:35;8.48;;;1.92;;
76612;SDS011;65507;48.454;-2.058;2023-05-07T14:00:01;5.72;;;1.80;;
76612;SDS011;65507;48.454;-2.058;2023-05-07T14:02:29;8.27;;;1.90;;
76612;SDS011;65507;48.454;-2.058;2023-05-07T14:04:55;7.82;;;2.20;;
76612;SDS011;65507;48.454;-2.058;2023-05-07T14:07:21;6.45;;;2.00;;
76612;SDS011;65507;48.454;-2.058;2023-05-07T14:09:46;7.65;;;2.10;;
76612;SDS011;65507;48.454;-2.058;2023-05-07T14:12:12;8.48;;;2.00;;
76612;SDS011;65507;48.454;-2.058;2023-05-07T14:14:38;7.25;;;2.13;;
76612;SDS011;65507;48.454;-2.058;2023-05-07T14:17:03;5.22;;;2.28;;
76612;SDS011;65507;48.454;-2.058;2023-05-07T14:19:29;7.72;;;2.03;;
76612;SDS011;65507;48.454;-2.058;2023-05-07T14:21:55;6.97;;;2.08;;
76612;SDS011;65507;48.454;-2.058;2023-05-07T14:24:21;7.75;;;2.00;;
76612;SDS011;65507;48.454;-2.058;2023-05-07T14:26:46;8.38;;;2.17;;
76612;SDS011;65507;48.454;-2.058;2023-05-07T14:29:12;8.68;;;2.30;;
76612;SDS011;65507;48.454;-2.058;2023-05-07T14:31:38;8.00;;;1.80;;
76612;SDS011;65507;48.454;-2.058;2023-05-07T14:34:04;10.88;;;2.47;;
76612;SDS011;65507;48.454;-2.058;2023-05-07T14:36:30;6.35;;;2.00;;
76612;SDS011;65507;48.454;-2.058;2023-05-07T14:38:56;4.95;;;2.25;;
76612;SDS011;65507;48.454;-2.058;2023-05-07T14:41:24;9.15;;;2.65;;
76612;SDS011;65507;48.454;-2.058;2023-05-07T14:43:50;9.95;;;2.30;;
76612;SDS011;65507;48.454;-2.058;2023-05-07T14:46:16;4.30;;;1.88;;
76612;SDS011;65507;48.454;-2.058;2023-05-07T14:48:45;6.75;;;2.00;;
76612;SDS011;65507;48.454;-2.058;2023-05-07T14:51:11;7.75;;;2.42;;